createdAt,value
2018-09-23T00:02:03.017Z,99436.00
2018-09-23T00:04:31.814Z,99422.91
2018-09-23T00:07:01.697Z,99422.75
2018-09-23T00:09:30.328Z,99426.36
2018-09-23T00:11:59.153Z,99422.48
2018-09-23T00:14:28.850Z,99421.98
2018-09-23T00:16:59.647Z,99419.05
2018-09-23T00:19:29.606Z,99409.34
2018-09-23T00:21:58.188Z,99414.08
2018-09-23T00:24:26.933Z,99412.77
2018-09-23T00:26:56.570Z,99403.63
2018-09-23T00:29:30.472Z,99396.95
2018-09-23T00:31:59.292Z,99396.95
2018-09-23T00:34:27.881Z,99392.25
2018-09-23T00:36:56.457Z,99385.77
2018-09-23T00:39:25.008Z,99375.88
2018-09-23T00:41:53.593Z,99370.62
2018-09-23T00:44:22.161Z,99365.91
2018-09-23T00:46:50.763Z,99355.38
2018-09-23T00:49:19.312Z,99359.28
2018-09-23T00:51:47.913Z,99350.19
2018-09-23T00:54:16.457Z,99343.42
2018-09-23T00:56:45.040Z,99346.02
2018-09-23T00:59:13.593Z,99334.20
2018-09-23T01:01:42.188Z,99340.59
2018-09-23T01:04:10.977Z,99327.35
2018-09-23T01:06:39.569Z,99317.61
2018-09-23T01:09:09.329Z,99317.06
2018-09-23T01:11:38.201Z,99313.56
2018-09-23T01:14:06.733Z,99307.91
2018-09-23T01:16:35.285Z,99300.36
2018-09-23T01:19:03.804Z,99291.67
2018-09-23T01:21:32.353Z,99286.61
2018-09-23T01:24:00.856Z,99282.70
2018-09-23T01:26:29.393Z,99278.78
2018-09-23T01:28:57.904Z,99277.87
2018-09-23T01:31:26.436Z,99267.85
2018-09-23T01:33:54.937Z,99265.11
2018-09-23T01:36:23.492Z,99266.56
2018-09-23T01:38:51.997Z,99259.25
2018-09-23T01:41:20.539Z,99253.47
2018-09-23T01:43:49.048Z,99244.55
2018-09-23T01:46:17.585Z,99236.91
2018-09-23T01:48:46.094Z,99239.75
2018-09-23T01:51:14.645Z,99231.19
2018-09-23T01:53:43.189Z,99223.34
2018-09-23T01:56:11.723Z,99215.07
2018-09-23T01:58:40.232Z,99215.73
2018-09-23T02:01:08.772Z,99222.08
2018-09-23T02:03:37.709Z,99212.87
2018-09-23T02:06:06.520Z,99209.66
2018-09-23T02:08:36.107Z,99209.27
2018-09-23T02:11:04.912Z,99201.09
2018-09-23T02:13:33.424Z,99196.05
2018-09-23T02:16:02.503Z,99197.47
2018-09-23T02:18:31.039Z,99187.74
2018-09-23T02:20:59.645Z,99186.72
2018-09-23T02:23:28.260Z,99174.05
2018-09-23T02:25:56.823Z,99179.48
2018-09-23T02:28:25.439Z,99175.47
2018-09-23T02:30:54.083Z,99166.55
2018-09-23T02:33:22.636Z,99162.49
2018-09-23T02:35:51.580Z,99162.00
2018-09-23T02:38:20.192Z,99152.94
2018-09-23T02:40:48.712Z,99156.83
2018-09-23T02:43:17.265Z,99139.48
2018-09-23T02:45:45.799Z,99139.61
2018-09-23T02:48:14.336Z,99138.61
2018-09-23T02:50:42.841Z,99129.22
2018-09-23T02:53:11.399Z,99123.73
2018-09-23T02:55:39.904Z,99125.66
2018-09-23T02:58:08.443Z,99112.48
2018-09-23T03:00:36.944Z,99110.11
2018-09-23T03:03:05.504Z,99111.55
2018-09-23T03:05:33.996Z,99109.28
2018-09-23T03:08:02.913Z,99110.60
2018-09-23T03:10:31.440Z,99099.12
2018-09-23T03:12:59.993Z,99101.23
2018-09-23T03:15:28.501Z,99092.16
2018-09-23T03:17:57.244Z,99089.17
2018-09-23T03:20:25.756Z,99089.55
2018-09-23T03:22:54.310Z,99086.69
2018-09-23T03:25:22.829Z,99087.40
2018-09-23T03:27:51.527Z,99086.45
2018-09-23T03:30:20.069Z,99082.50
2018-09-23T03:32:48.705Z,99078.55
2018-09-23T03:35:17.231Z,99071.92
2018-09-23T03:37:45.779Z,99071.21
2018-09-23T03:40:14.341Z,99069.31
2018-09-23T03:42:43.041Z,99061.98
2018-09-23T03:45:11.548Z,99062.95
2018-09-23T03:47:40.076Z,99059.00
2018-09-23T03:50:08.604Z,99052.55
2018-09-23T03:52:37.158Z,99052.54
2018-09-23T03:55:05.705Z,99050.18
2018-09-23T03:57:34.248Z,99047.78
2018-09-23T04:00:02.819Z,99046.22
2018-09-23T04:02:31.353Z,99040.91
2018-09-23T04:04:59.865Z,99035.19
2018-09-23T04:07:28.409Z,99027.53
2018-09-23T04:09:56.932Z,99029.18
2018-09-23T04:12:25.439Z,99021.17
2018-09-23T04:14:54.033Z,99018.40
2018-09-23T04:17:22.549Z,99012.91
2018-09-23T04:19:51.094Z,99014.33
2018-09-23T04:22:19.606Z,99012.90
2018-09-23T04:24:48.148Z,99004.97
2018-09-23T04:27:16.713Z,99014.79
2018-09-23T04:29:45.540Z,99008.88
2018-09-23T04:32:14.080Z,99013.99
2018-09-23T04:34:42.617Z,99000.62
2018-09-23T04:37:11.122Z,99012.72
2018-09-23T04:39:39.656Z,99001.81
2018-09-23T04:42:08.207Z,99003.44
2018-09-23T04:44:36.749Z,99000.52
2018-09-23T04:47:05.273Z,98995.33
2018-09-23T04:49:33.814Z,98985.91
2018-09-23T04:52:02.337Z,98991.86
2018-09-23T04:54:30.864Z,98983.13
2018-09-23T04:56:59.381Z,98986.63
2018-09-23T04:59:27.924Z,98990.11
2018-09-23T05:01:56.497Z,98991.17
2018-09-23T05:04:25.045Z,98990.75
2018-09-23T05:06:53.554Z,98990.21
2018-09-23T05:09:22.102Z,98995.15
2018-09-23T05:11:50.621Z,98983.09
2018-09-23T05:14:19.205Z,98986.07
2018-09-23T05:16:47.757Z,98985.74
2018-09-23T05:19:16.344Z,98985.38
2018-09-23T05:21:44.931Z,98980.62
2018-09-23T05:24:13.703Z,98986.83
2018-09-23T05:26:42.204Z,98977.95
2018-09-23T05:29:10.746Z,98983.56
2018-09-23T05:31:39.245Z,98979.70
2018-09-23T05:34:07.780Z,98960.56
2018-09-23T05:36:36.294Z,98983.70
2018-09-23T05:39:06.348Z,98980.52
2018-09-23T05:41:34.849Z,98971.17
2018-09-23T05:44:03.429Z,98958.73
2018-09-23T05:46:31.913Z,98969.58
2018-09-23T05:49:00.452Z,98960.89
2018-09-23T05:51:28.944Z,98968.02
2018-09-23T05:53:57.508Z,98965.27
2018-09-23T05:56:32.601Z,98958.17
2018-09-23T05:59:01.160Z,98955.02
2018-09-23T06:01:29.722Z,98973.16
2018-09-23T06:03:58.321Z,98958.03
2018-09-23T06:06:26.879Z,98960.75
2018-09-23T06:08:55.448Z,98963.87
2018-09-23T06:11:24.009Z,98959.28
2018-09-23T06:13:52.576Z,98954.66
2018-09-23T06:16:21.176Z,98965.20
2018-09-23T06:18:49.748Z,98959.02
2018-09-23T06:21:18.337Z,98946.38
2018-09-23T06:23:46.940Z,98940.83
2018-09-23T06:26:15.508Z,98939.21
2018-09-23T06:28:44.952Z,98950.85
2018-09-23T06:31:23.922Z,98944.13
2018-09-23T06:34:05.720Z,98944.78
2018-09-23T06:36:35.854Z,98947.34
2018-09-23T06:39:14.374Z,98948.95
2018-09-23T06:41:43.707Z,98952.83
2018-09-23T06:44:20.996Z,98952.33
2018-09-23T06:46:50.800Z,98941.83
2018-09-23T06:49:19.649Z,98951.40
2018-09-23T06:51:51.285Z,98950.36
2018-09-23T06:54:20.802Z,98952.12
2018-09-23T06:56:50.229Z,98957.92
2018-09-23T06:59:19.160Z,98949.43
2018-09-23T07:01:48.547Z,98960.32
2018-09-23T07:04:17.461Z,98950.39
2018-09-23T07:06:46.069Z,98958.56
2018-09-23T07:09:15.386Z,98951.80
2018-09-23T07:11:44.318Z,98950.86
2018-09-23T07:14:13.699Z,98952.83
2018-09-23T07:16:42.364Z,98949.18
2018-09-23T07:19:10.920Z,98950.00
2018-09-23T07:21:40.102Z,98951.15
2018-09-23T07:24:16.076Z,98948.46
2018-09-23T07:26:45.146Z,98944.63
2018-09-23T07:29:13.866Z,98941.18
2018-09-23T07:31:42.445Z,98946.70
2018-09-23T07:34:11.111Z,98949.28
2018-09-23T07:36:39.777Z,98955.34
2018-09-23T07:39:09.421Z,98949.39
2018-09-23T07:41:38.325Z,98947.13
2018-09-23T07:44:07.849Z,98936.58
2018-09-23T07:46:36.439Z,98932.92
2018-09-23T07:49:06.889Z,98945.75
2018-09-23T07:51:35.468Z,98932.84
2018-09-23T07:54:11.689Z,98941.33
2018-09-23T07:56:40.517Z,98929.95
2018-09-23T07:59:09.057Z,98932.52
2018-09-23T08:01:37.926Z,98929.58
2018-09-23T08:04:08.043Z,98926.80
2018-09-23T08:06:36.648Z,98919.86
2018-09-23T08:09:06.748Z,98914.25
2018-09-23T08:11:35.537Z,98925.52
2018-09-23T08:14:04.582Z,98924.45
2018-09-23T08:16:32.870Z,98921.63
2018-09-23T08:19:02.622Z,98920.20
2018-09-23T08:21:31.240Z,98911.34
2018-09-23T08:23:59.784Z,98919.31
2018-09-23T08:26:33.063Z,98912.34
2018-09-23T08:29:01.614Z,98914.26
2018-09-23T08:31:30.968Z,98926.13
2018-09-23T08:33:59.603Z,98925.00
2018-09-23T08:36:30.316Z,98922.92
2018-09-23T08:39:02.354Z,98914.29
2018-09-23T08:41:31.081Z,98919.25
2018-09-23T08:44:00.021Z,98931.27
2018-09-23T08:46:31.845Z,98926.55
2018-09-23T08:49:00.477Z,98919.63
2018-09-23T08:51:29.081Z,98920.91
2018-09-23T08:54:04.657Z,98920.24
2018-09-23T08:56:33.496Z,98922.30
2018-09-23T08:59:02.027Z,98901.08
2018-09-23T09:01:32.012Z,98915.03
2018-09-23T09:04:08.986Z,98898.72
2018-09-23T09:06:50.033Z,98898.21
2018-09-23T09:09:25.002Z,98898.11
2018-09-23T09:12:00.024Z,98893.30
2018-09-23T09:14:28.750Z,98889.97
2018-09-23T09:16:57.325Z,98882.23
2018-09-23T09:19:26.076Z,98878.63
2018-09-23T09:21:54.669Z,98871.00
2018-09-23T09:24:23.213Z,98882.42
2018-09-23T09:26:51.807Z,98872.13
2018-09-23T09:29:20.530Z,98870.30
2018-09-23T09:31:49.073Z,98862.66
2018-09-23T09:34:17.661Z,98856.83
2018-09-23T09:36:46.215Z,98846.86
2018-09-23T09:39:14.789Z,98845.72
2018-09-23T09:41:43.341Z,98845.91
2018-09-23T09:44:12.007Z,98855.12
2018-09-23T09:46:40.545Z,98848.14
2018-09-23T09:49:09.129Z,98851.97
2018-09-23T09:51:37.675Z,98847.84
2018-09-23T09:54:06.365Z,98840.35
2018-09-23T09:56:34.921Z,98839.36
2018-09-23T09:59:03.603Z,98838.88
2018-09-23T10:01:32.137Z,98830.71
2018-09-23T10:04:00.721Z,98835.86
2018-09-23T10:06:29.284Z,98832.20
2018-09-23T10:09:03.497Z,98837.72
2018-09-23T10:11:39.482Z,98833.41
2018-09-23T10:14:15.740Z,98803.30
2018-09-23T10:16:49.637Z,98821.93
2018-09-23T10:19:24.925Z,98817.27
2018-09-23T10:21:59.451Z,98824.57
2018-09-23T10:24:34.823Z,98807.11
2018-09-23T10:27:09.898Z,98812.44
2018-09-23T10:29:45.337Z,98808.58
2018-09-23T10:32:19.458Z,98809.92
2018-09-23T10:34:52.895Z,98797.41
2018-09-23T10:37:28.387Z,98798.27
2018-09-23T10:40:02.673Z,98789.93
2018-09-23T10:42:35.896Z,98785.78
2018-09-23T10:45:10.772Z,98784.98
2018-09-23T10:47:44.875Z,98784.45
2018-09-23T10:50:17.543Z,98792.11
2018-09-23T10:52:53.722Z,98769.95
2018-09-23T10:55:29.042Z,98773.62
2018-09-23T10:58:04.289Z,98772.92
2018-09-23T11:00:39.244Z,98767.57
2018-09-23T11:03:16.603Z,98761.23
2018-09-23T11:05:53.931Z,98748.83
2018-09-23T11:08:29.279Z,98766.58
2018-09-23T11:10:58.027Z,98767.28
2018-09-23T11:13:28.682Z,98766.94
2018-09-23T11:15:57.421Z,98773.24
2018-09-23T11:18:26.055Z,98751.09
2018-09-23T11:20:56.971Z,98747.92
2018-09-23T11:23:25.657Z,98735.27
2018-09-23T11:25:54.989Z,98732.55
2018-09-23T11:28:24.689Z,98722.13
2018-09-23T11:30:53.344Z,98724.48
2018-09-23T11:33:21.885Z,98716.80
2018-09-23T11:36:05.986Z,98711.12
2018-09-23T11:38:34.677Z,98709.55
2018-09-23T11:41:04.293Z,98703.22
2018-09-23T11:43:32.885Z,98691.05
2018-09-23T11:46:01.518Z,98677.22
2018-09-23T11:48:30.026Z,98679.19
2018-09-23T11:50:58.577Z,98670.12
2018-09-23T11:53:27.115Z,98651.92
2018-09-23T11:55:55.690Z,98664.23
2018-09-23T11:58:33.174Z,98649.41
2018-09-23T12:01:02.044Z,98633.12
2018-09-23T12:03:30.557Z,98633.94
2018-09-23T12:05:59.097Z,98607.53
2018-09-23T12:08:27.613Z,98615.58
2018-09-23T12:10:56.230Z,98617.22
2018-09-23T12:13:24.726Z,98615.09
2018-09-23T12:15:53.314Z,98608.59
2018-09-23T12:18:29.452Z,98598.52
2018-09-23T12:21:03.112Z,98619.28
2018-09-23T12:23:31.758Z,98585.19
2018-09-23T12:26:01.433Z,98579.30
2018-09-23T12:28:30.010Z,98586.16
2018-09-23T12:30:58.597Z,98565.51
2018-09-23T12:33:30.444Z,98585.17
2018-09-23T12:36:02.427Z,98558.16
2018-09-23T12:38:37.539Z,98548.48
2018-09-23T12:41:09.724Z,98550.20
2018-09-23T12:43:38.465Z,98532.25
2018-09-23T12:46:07.065Z,98524.59
2018-09-23T12:48:37.064Z,98491.09
2018-09-23T12:51:06.775Z,98483.09
2018-09-23T12:53:35.277Z,98470.57
2018-09-23T12:56:03.818Z,98451.44
2018-09-23T12:58:32.344Z,98449.48
2018-09-23T13:01:00.876Z,98439.69
2018-09-23T13:03:35.547Z,98432.89
2018-09-23T13:06:10.453Z,98443.02
2018-09-23T13:08:39.200Z,98440.81
2018-09-23T13:11:07.842Z,98429.50
2018-09-23T13:13:41.029Z,98424.66
2018-09-23T13:16:09.609Z,98419.48
2018-09-23T13:18:38.160Z,98418.20
2018-09-23T13:21:07.683Z,98411.66
2018-09-23T13:23:36.273Z,98400.61
2018-09-23T13:26:06.002Z,98404.55
2018-09-23T13:28:34.613Z,98395.27
2018-09-23T13:31:03.243Z,98397.69
2018-09-23T13:33:36.964Z,98387.34
2018-09-23T13:36:07.212Z,98394.02
2018-09-23T13:38:36.096Z,98371.70
2018-09-23T13:41:04.749Z,98372.77
2018-09-23T13:43:33.685Z,98373.00
2018-09-23T13:46:02.711Z,98358.05
2018-09-23T13:48:31.441Z,98367.95
2018-09-23T13:51:01.285Z,98354.41
2018-09-23T13:53:29.969Z,98351.17
2018-09-23T13:55:58.720Z,98352.93
2018-09-23T13:58:28.505Z,98322.13
2018-09-23T14:00:57.106Z,98358.66
2018-09-23T14:03:26.700Z,98345.20
2018-09-23T14:05:56.561Z,98394.63
2018-09-23T14:08:26.239Z,98365.92
2018-09-23T14:10:54.900Z,98388.02
2018-09-23T14:15:20.349Z,98349.05
2018-09-23T19:32:54.053Z,99635.22
2018-09-23T19:37:28.213Z,99645.29
2018-09-23T19:40:01.026Z,99641.05
2018-09-23T19:42:29.926Z,99642.36
2018-09-23T19:44:58.568Z,99644.41
2018-09-23T19:47:27.701Z,99647.73
2018-09-23T19:49:56.281Z,99656.18
2018-09-23T19:52:24.852Z,99658.50
2018-09-23T19:54:53.392Z,99656.66
2018-09-23T19:57:22.080Z,99669.48
2018-09-23T19:59:50.940Z,99684.25
2018-09-23T20:02:23.065Z,99696.25
2018-09-23T20:04:51.941Z,99708.72
2018-09-23T20:07:20.517Z,99713.58
2018-09-23T20:09:49.110Z,99721.61
2018-09-23T20:12:20.399Z,99739.91
2018-09-23T20:14:48.920Z,99740.91
2018-09-23T20:17:17.457Z,99754.83
2018-09-23T20:19:46.000Z,99758.19
2018-09-23T20:22:14.792Z,99765.50
2018-09-23T20:24:49.322Z,99772.34
2018-09-23T20:27:21.899Z,99783.89
2018-09-23T20:29:57.483Z,99792.02
2018-09-23T20:32:36.194Z,99804.63
2018-09-23T20:35:14.251Z,99800.81
2018-09-23T20:37:49.356Z,99820.06
2018-09-23T20:40:24.968Z,99827.35
2018-09-23T20:42:59.904Z,99836.58
2018-09-23T20:45:34.460Z,99835.98
2018-09-23T20:48:07.883Z,99855.52
2018-09-23T20:50:42.879Z,99865.95
2018-09-23T20:53:17.359Z,99868.34
2018-09-23T20:55:51.277Z,99874.54
2018-09-23T20:58:25.041Z,99876.97
2018-09-23T21:01:00.200Z,99882.06
2018-09-23T21:03:34.143Z,99888.00
2018-09-23T21:06:02.728Z,99905.86
2018-09-23T21:08:34.245Z,99913.11
2018-09-23T21:11:04.932Z,99913.31
2018-09-23T21:13:34.170Z,99924.58
2018-09-23T21:16:02.961Z,99922.95
2018-09-23T21:18:32.173Z,99935.61
2018-09-23T21:21:01.521Z,99942.97
2018-09-23T21:23:33.954Z,99953.69
2018-09-23T21:33:01.838Z,99985.12
2018-09-23T21:35:30.624Z,100001.64
2018-09-23T21:38:06.629Z,100011.45
2018-09-23T21:40:39.128Z,100017.75
2018-09-23T21:43:12.436Z,100026.39
2018-09-23T21:45:44.851Z,100032.34
2018-09-23T21:48:14.105Z,100043.08
2018-09-23T21:50:43.681Z,100038.58
2018-09-23T21:53:13.576Z,100054.75
2018-09-23T21:55:45.531Z,100062.30
2018-09-23T21:58:15.562Z,100069.55
2018-09-23T22:00:46.663Z,100077.03
2018-09-23T22:03:16.341Z,100084.54
2018-09-23T22:05:47.601Z,100090.41
2018-09-23T22:08:18.352Z,100100.91
2018-09-23T22:10:48.092Z,100104.70
2018-09-23T22:13:18.407Z,100103.05
2018-09-23T22:15:49.441Z,100106.16
2018-09-23T22:18:20.294Z,100116.72
2018-09-23T22:20:48.903Z,100120.28
2018-09-23T22:23:17.437Z,100131.42
2018-09-23T22:25:51.505Z,100139.63
2018-09-23T22:28:20.061Z,100145.23
2018-09-23T22:30:49.169Z,100150.05
2018-09-23T22:33:17.704Z,100160.36
2018-09-23T22:35:46.508Z,100162.77
2018-09-23T22:38:15.033Z,100175.96
2018-09-23T22:40:43.598Z,100181.98
2018-09-23T22:43:12.138Z,100173.08
2018-09-23T22:45:40.751Z,100191.17
2018-09-23T22:48:09.303Z,100200.42
2018-09-23T22:50:37.885Z,100202.17
2018-09-23T22:53:06.733Z,100211.55
2018-09-23T22:55:35.304Z,100213.30
2018-09-23T22:58:03.864Z,100217.10
2018-09-23T23:00:32.443Z,100224.88
2018-09-23T23:03:00.984Z,100230.97
2018-09-23T23:05:29.565Z,100235.64
2018-09-23T23:07:58.116Z,100237.70
2018-09-23T23:10:26.684Z,100242.60
2018-09-23T23:12:55.249Z,100250.65
2018-09-23T23:15:23.812Z,100254.65
2018-09-23T23:17:52.385Z,100259.81
2018-09-23T23:20:20.986Z,100268.41
2018-09-23T23:22:49.605Z,100270.87
2018-09-23T23:25:18.130Z,100272.77
2018-09-23T23:27:46.715Z,100279.17
2018-09-23T23:30:15.257Z,100290.40
2018-09-23T23:32:43.822Z,100294.50
2018-09-23T23:35:12.357Z,100304.57
2018-09-23T23:37:40.921Z,100313.02
2018-09-23T23:40:09.528Z,100323.47
2018-09-23T23:42:38.097Z,100318.16
2018-09-23T23:45:06.714Z,100317.96
2018-09-23T23:47:35.272Z,100319.27
2018-09-23T23:50:03.829Z,100324.60
2018-09-23T23:52:32.459Z,100326.34
2018-09-23T23:55:01.197Z,100339.15
2018-09-23T23:57:30.623Z,100342.61
2018-09-23T23:59:59.195Z,100356.92
